Time;durP1;ratioP1;P1;durP2;ratioP2;P2;SDS_P1;SDS_P2;PMS_P1;PMS_P2;Temp;Humidity;BMP_temperature;BMP_pressure;BME280_temperature;BME280_humidity;BME280_pressure;Samples;Min_cycle;Max_cycle;Signal;HPM_P1;HPM_P2
2022/06/22 00:01:29;;;;;;;;;;;;;;;-144.47;43.50;53213.63;5029779;28;19944;-68
2022/06/22 00:03:59;;;;;;;;;;;;;;;-144.47;43.79;53227.53;5049067;28;19948;-68
2022/06/22 00:06:24;;;;;;;;;;;;;;;-144.47;43.86;53205.66;5049311;28;20441;-68
2022/06/22 00:08:51;;;;;;;;;;;;;;;-144.47;44.13;53221.56;5048248;28;20004;-69
2022/06/22 00:11:17;;;;;;;;;;;;;;;-144.47;44.26;53235.47;5048778;28;19916;-68
2022/06/22 00:13:47;;;;;;;;;;;;;;;-144.47;44.63;53197.72;5040802;28;19909;-63
2022/06/22 00:16:22;;;;;;;;;;;;;;;-144.47;44.99;53221.56;5030517;28;19913;-66
2022/06/22 00:18:48;;;;;;;;;;;;;;;-144.47;45.12;53219.56;5028810;28;19940;-67
2022/06/22 00:21:13;;;;;;;;;;;;;;;-144.47;45.34;53245.41;5022331;28;20019;-67
2022/06/22 00:23:40;;;;;;;;;;;;;;;-144.47;45.21;53233.47;5048994;28;19999;-69
2022/06/22 00:26:26;;;;;;;;;;;;;;;-144.47;45.40;53209.66;5033624;28;19916;-67
2022/06/22 00:28:51;;;;;;;;;;;;;;;-144.47;45.42;53227.53;5024237;28;20233;-67
2022/06/22 00:31:35;;;;;;;;;;;;;;;-144.47;45.65;53177.88;5039744;28;20298;-64
2022/06/22 00:34:02;;;;;;;;;;;;;;;-144.47;45.86;53203.69;5045180;28;19959;-70
2022/06/22 00:36:32;;;;;;;;;;;;;;;-144.47;45.80;53197.72;5025454;28;19909;-65
2022/06/22 00:39:07;;;;;;;;;;;;;;;-144.47;46.09;53201.69;5043417;28;20362;-67
2022/06/22 00:41:33;;;;;;;;;;;;;;;-144.47;46.19;53215.59;5049181;28;19909;-69
2022/06/22 00:44:04;;;;;;;;;;;;;;;-144.47;46.47;53269.22;5031882;28;20377;-65
2022/06/22 00:46:30;;;;;;;;;;;;;;;-144.47;46.63;53221.56;5040389;28;20436;-66
2022/06/22 00:48:55;;;;;;;;;;;;;;;-144.47;46.75;53237.44;5030031;28;19917;-68
2022/06/22 00:51:22;;;;;;;;;;;;;;;-144.47;46.76;53217.59;5029372;28;20312;-67
2022/06/22 00:53:55;;;;;;;;;;;;;;;-144.47;46.79;53233.47;5033391;28;19909;-70
2022/06/22 00:56:39;;;;;;;;;;;;;;;-144.47;46.97;53179.84;5049512;28;19908;-67
2022/06/22 00:59:23;;;;;;;;;;;;;;;-144.47;46.72;53221.56;5040412;28;20397;-66
2022/06/22 01:02:01;;;;;;;;;;;;;;;-144.47;46.39;53187.78;5032628;28;19948;-69
2022/06/22 01:04:35;;;;;;;;;;;;;;;-144.47;46.41;53253.34;5037715;28;20348;-66
2022/06/22 01:07:05;;;;;;;;;;;;;;;-144.47;46.37;53237.44;5035967;28;19909;-67
2022/06/22 01:09:44;;;;;;;;;;;;;;;-144.47;46.27;53201.69;5047189;28;20297;-67
2022/06/22 01:12:23;;;;;;;;;;;;;;;-144.47;46.20;53221.56;5032630;28;20020;-67
2022/06/22 01:15:03;;;;;;;;;;;;;;;-144.47;46.49;53217.59;5027702;28;20363;-67
2022/06/22 01:17:28;;;;;;;;;;;;;;;-144.47;46.65;53223.56;5022067;28;19941;-69
2022/06/22 01:20:11;;;;;;;;;;;;;;;-144.47;46.99;53189.78;5019987;28;19909;-66
2022/06/22 01:22:42;;;;;;;;;;;;;;;-144.47;47.19;53221.56;5039121;28;19909;-68
2022/06/22 01:25:07;;;;;;;;;;;;;;;-144.47;47.11;53197.72;5029162;28;19943;-69
2022/06/22 01:27:35;;;;;;;;;;;;;;;-144.47;47.27;53249.38;5030083;28;20291;-69
2022/06/22 01:30:03;;;;;;;;;;;;;;;-144.47;47.44;53213.63;5029997;28;19947;-66
2022/06/22 01:32:30;;;;;;;;;;;;;;;-144.47;47.19;53195.75;5046623;28;19919;-66
2022/06/22 01:35:14;;;;;;;;;;;;;;;-144.47;47.42;53199.72;5039780;28;19962;-67
2022/06/22 01:37:44;;;;;;;;;;;;;;;-144.47;47.23;53231.50;5031397;28;19913;-66
2022/06/22 01:40:14;;;;;;;;;;;;;;;-144.47;47.49;53251.34;5031555;28;19916;-67
2022/06/22 01:42:43;;;;;;;;;;;;;;;-144.47;47.58;53241.44;5032856;28;20016;-63
2022/06/22 01:45:16;;;;;;;;;;;;;;;-144.47;47.54;53241.44;5026963;28;19924;-68
2022/06/22 01:47:49;;;;;;;;;;;;;;;-144.47;47.81;53249.38;5021831;28;19913;-67
2022/06/22 01:50:14;;;;;;;;;;;;;;;-144.47;47.95;53221.56;5032371;28;19912;-67
2022/06/22 01:52:39;;;;;;;;;;;;;;;-144.47;48.19;53227.53;5032782;28;19920;-69
2022/06/22 01:55:09;;;;;;;;;;;;;;;-144.47;48.34;53233.47;5032698;28;20286;-68
2022/06/22 01:57:36;;;;;;;;;;;;;;;-144.47;48.46;53237.44;5033310;28;19908;-65
2022/06/22 02:00:09;;;;;;;;;;;;;;;-144.47;48.48;53207.66;5034724;28;19952;-70
2022/06/22 02:02:34;;;;;;;;;;;;;;;-144.47;48.66;53231.50;5033799;28;19952;-68
2022/06/22 02:05:04;;;;;;;;;;;;;;;-144.47;48.67;53257.31;5040346;28;19927;-67
2022/06/22 02:07:46;;;;;;;;;;;;;;;-144.47;48.84;53227.53;5054805;28;19916;-70
2022/06/22 02:10:23;;;;;;;;;;;;;;;-144.47;48.84;53235.47;5037925;28;19916;-66
2022/06/22 02:13:02;;;;;;;;;;;;;;;-144.47;48.96;53215.59;5052353;28;20414;-68
2022/06/22 02:15:39;;;;;;;;;;;;;;;-144.47;48.86;53245.41;5040381;28;20003;-68
2022/06/22 02:18:13;;;;;;;;;;;;;;;-144.47;49.13;53261.28;5046930;28;20406;-69
2022/06/22 02:20:40;;;;;;;;;;;;;;;-144.47;48.97;53249.38;5019139;28;19945;-70
2022/06/22 02:23:08;;;;;;;;;;;;;;;-144.47;48.79;53239.44;5029867;28;19978;-68
2022/06/22 02:25:35;;;;;;;;;;;;;;;-144.47;48.81;53269.22;5028843;28;19909;-67
2022/06/22 02:28:01;;;;;;;;;;;;;;;-144.47;48.48;53199.72;5028571;28;20003;-69
2022/06/22 02:30:26;;;;;;;;;;;;;;;-144.47;48.39;53233.47;5033237;28;20357;-69
2022/06/22 02:32:52;;;;;;;;;;;;;;;-144.47;48.79;53217.59;5036779;28;19970;-65
2022/06/22 02:35:17;;;;;;;;;;;;;;;-144.47;48.67;53213.63;5038491;28;19932;-69
2022/06/22 02:37:49;;;;;;;;;;;;;;;-144.47;48.78;53261.28;5030200;28;20278;-67
2022/06/22 02:40:21;;;;;;;;;;;;;;;-144.47;48.93;53219.56;5028746;28;20014;-68
2022/06/22 02:45:30;;;;;;;;;;;;;;;-144.47;48.99;53255.34;5036787;28;19963;-67
2022/06/22 02:47:58;;;;;;;;;;;;;;;-144.47;49.08;53225.53;5040723;28;20366;-66
2022/06/22 02:50:42;;;;;;;;;;;;;;;-144.47;49.07;53245.41;5030647;28;19920;-66
2022/06/22 02:53:19;;;;;;;;;;;;;;;-144.47;49.27;53223.56;5044295;28;19924;-68
2022/06/22 02:55:44;;;;;;;;;;;;;;;-144.47;49.15;53225.53;5042491;28;19940;-70
2022/06/22 02:58:23;;;;;;;;;;;;;;;-144.47;49.12;53253.34;5043876;28;19963;-66
2022/06/22 03:00:49;;;;;;;;;;;;;;;-144.47;49.03;53249.38;5039261;28;19917;-67
2022/06/22 03:03:16;;;;;;;;;;;;;;;-144.47;49.04;53245.41;5034660;28;20393;-67
2022/06/22 03:05:43;;;;;;;;;;;;;;;-144.47;48.93;53231.50;5031288;28;19909;-65
2022/06/22 03:08:11;;;;;;;;;;;;;;;-144.47;49.03;53209.66;5031267;28;19909;-64
2022/06/22 03:10:49;;;;;;;;;;;;;;;-144.47;48.90;53241.44;5028919;28;20472;-68
2022/06/22 03:13:19;;;;;;;;;;;;;;;-144.47;48.81;53213.63;5030018;28;19963;-68
2022/06/22 03:15:45;;;;;;;;;;;;;;;-144.47;48.73;53217.59;5023819;28;19913;-69
2022/06/22 03:18:14;;;;;;;;;;;;;;;-144.47;48.66;53213.63;5041034;28;19971;-67
2022/06/22 03:20:45;;;;;;;;;;;;;;;-144.47;48.84;53219.56;5018442;28;20421;-68
2022/06/22 03:23:17;;;;;;;;;;;;;;;-144.47;48.90;53243.41;5029811;28;19909;-68
2022/06/22 03:25:54;;;;;;;;;;;;;;;-144.47;48.92;53235.47;5029316;28;19939;-66
2022/06/22 03:28:27;;;;;;;;;;;;;;;-144.47;48.82;53223.56;5030670;28;19955;-67
2022/06/22 03:30:57;;;;;;;;;;;;;;;-144.47;48.74;53237.44;5029129;28;19939;-68
2022/06/22 03:33:53;;;;;;;;;;;;;;;-144.47;48.38;53193.75;5039209;28;20405;-68
2022/06/22 03:36:26;;;;;;;;;;;;;;;-144.47;48.30;53259.31;5008861;28;19963;-67
2022/06/22 03:38:57;;;;;;;;;;;;;;;-144.47;48.22;53211.63;5030514;28;20011;-68
2022/06/22 03:41:26;;;;;;;;;;;;;;;-144.47;47.61;53229.50;5041369;28;20020;-69
2022/06/22 03:44:00;;;;;;;;;;;;;;;-144.47;47.35;53217.59;5029897;28;20004;-67
2022/06/22 03:46:35;;;;;;;;;;;;;;;-144.47;47.09;53211.63;5040246;28;20026;-67
2022/06/22 03:49:03;;;;;;;;;;;;;;;-144.47;47.12;53241.44;5028992;28;19916;-66
2022/06/22 03:51:31;;;;;;;;;;;;;;;-144.47;47.47;53253.34;5041764;28;19913;-67
2022/06/22 03:54:08;;;;;;;;;;;;;;;-144.47;47.77;53197.72;5031606;28;19919;-66
2022/06/22 03:56:37;;;;;;;;;;;;;;;-144.47;47.92;53215.59;5030704;28;19936;-70
2022/06/22 03:59:04;;;;;;;;;;;;;;;-144.47;47.68;53183.81;5045882;22;19901;-66
2022/06/22 04:01:29;;;;;;;;;;;;;;;-144.47;47.11;53237.44;5063385;28;20503;-67
2022/06/22 04:03:55;;;;;;;;;;;;;;;-144.47;47.00;53215.59;5051109;28;19912;-68
2022/06/22 04:06:29;;;;;;;;;;;;;;;-144.47;47.19;53211.63;5050409;28;19909;-67
2022/06/22 04:08:54;;;;;;;;;;;;;;;-144.47;46.82;53181.84;5052047;28;19930;-67
2022/06/22 04:11:32;;;;;;;;;;;;;;;-144.47;47.10;53239.44;5048219;28;19916;-67
2022/06/22 04:14:12;;;;;;;;;;;;;;;-144.47;46.66;53169.91;5050567;28;19956;-68
2022/06/22 04:16:38;;;;;;;;;;;;;;;-144.47;46.39;53195.75;5047841;28;20028;-66
2022/06/22 04:19:16;;;;;;;;;;;;;;;-144.47;46.25;53207.66;5051334;28;19916;-67
2022/06/22 04:21:43;;;;;;;;;;;;;;;-144.47;46.22;53191.78;5049474;28;19999;-66
2022/06/22 04:24:13;;;;;;;;;;;;;;;-144.47;46.02;53201.69;5050918;28;19916;-67
2022/06/22 04:26:44;;;;;;;;;;;;;;;-144.47;45.98;53227.53;5055467;28;19917;-69
2022/06/22 04:29:15;;;;;;;;;;;;;;;-144.47;45.85;53154.03;5047043;28;20362;-66
2022/06/22 04:31:47;;;;;;;;;;;;;;;-144.47;45.71;53233.47;5052153;28;19930;-66
2022/06/22 04:34:16;;;;;;;;;;;;;;;-144.47;45.79;53189.78;5048095;28;19912;-68
2022/06/22 04:36:45;;;;;;;;;;;;;;;-144.47;46.18;53203.69;5049331;28;19923;-65
2022/06/22 04:39:20;;;;;;;;;;;;;;;-144.47;46.00;53209.66;5055506;28;20011;-66
2022/06/22 04:41:46;;;;;;;;;;;;;;;-144.47;45.83;53181.84;5045780;28;19932;-66
2022/06/22 04:44:20;;;;;;;;;;;;;;;-144.47;46.13;53209.66;5050321;28;19916;-67
2022/06/22 04:46:48;;;;;;;;;;;;;;;-144.47;46.33;53187.78;5048256;28;19917;-66
2022/06/22 04:49:22;;;;;;;;;;;;;;;-144.47;46.36;53189.78;5047329;28;20276;-67
2022/06/22 04:51:51;;;;;;;;;;;;;;;-144.47;46.24;53189.78;5047842;28;19912;-67
2022/06/22 04:54:22;;;;;;;;;;;;;;;-144.47;46.50;53207.66;5045548;28;20370;-65
2022/06/22 04:56:49;;;;;;;;;;;;;;;-144.47;45.85;53173.88;5046104;28;19919;-66
2022/06/22 04:59:15;;;;;;;;;;;;;;;-144.47;45.53;53201.69;5046766;28;20011;-67
2022/06/22 05:01:43;;;;;;;;;;;;;;;-144.47;44.76;53185.81;5052222;28;20368;-67
2022/06/22 05:04:18;;;;;;;;;;;;;;;-144.47;44.31;53215.59;5045545;28;19920;-69
2022/06/22 05:07:00;;;;;;;;;;;;;;;-144.47;44.31;53239.44;5056098;28;19932;-69
2022/06/22 05:09:30;;;;;;;;;;;;;;;-144.47;44.15;53199.72;5056695;28;20430;-68
2022/06/22 05:11:56;;;;;;;;;;;;;;;-144.47;44.42;53181.84;5050995;28;20386;-67
2022/06/22 05:14:27;;;;;;;;;;;;;;;-144.47;43.67;53219.56;5051483;28;19916;-67
2022/06/22 05:16:56;;;;;;;;;;;;;;;-144.47;43.31;53183.81;5052365;28;19912;-67
2022/06/22 05:19:23;;;;;;;;;;;;;;;-144.47;42.97;53169.91;5052037;28;19972;-67
2022/06/22 05:21:48;;;;;;;;;;;;;;;-144.47;42.40;53187.78;5054147;28;19909;-68
2022/06/22 05:24:24;;;;;;;;;;;;;;;-144.47;42.41;53154.03;5051487;28;19978;-67
2022/06/22 05:26:51;;;;;;;;;;;;;;;-144.47;42.07;53179.84;5057283;28;19909;-67
2022/06/22 05:29:19;;;;;;;;;;;;;;;-144.47;42.05;53160.00;5053329;28;19915;-67
2022/06/22 05:31:57;;;;;;;;;;;;;;;-144.47;42.12;53173.88;5055617;28;20015;-70
2022/06/22 05:34:24;;;;;;;;;;;;;;;-144.47;42.31;53193.75;5050547;28;19913;-67
2022/06/22 05:36:53;;;;;;;;;;;;;;;-144.47;42.52;53201.69;5053158;28;19971;-68
2022/06/22 05:39:19;;;;;;;;;;;;;;;-144.47;42.77;53165.94;5049597;28;20302;-68
2022/06/22 05:41:46;;;;;;;;;;;;;;;-144.47;42.91;53177.88;5052676;28;19951;-66
2022/06/22 05:44:13;;;;;;;;;;;;;;;-144.47;42.97;53150.06;5053052;28;19936;-67
2022/06/22 05:46:47;;;;;;;;;;;;;;;-144.47;42.87;53193.75;5057701;28;19998;-67
2022/06/22 05:49:15;;;;;;;;;;;;;;;-144.47;42.79;53160.00;5048557;28;19981;-67
2022/06/22 05:51:40;;;;;;;;;;;;;;;-144.47;42.78;53201.69;5051651;28;20378;-66
2022/06/22 05:54:05;;;;;;;;;;;;;;;-144.47;42.95;53169.91;5053011;28;19920;-66
2022/06/22 05:56:31;;;;;;;;;;;;;;;-144.47;43.85;53229.50;5050741;28;19916;-67
2022/06/22 05:59:08;;;;;;;;;;;;;;;-144.47;43.71;53163.97;5050453;28;19955;-67
2022/06/22 06:01:48;;;;;;;;;;;;;;;-144.47;43.63;53150.06;5044637;28;19924;-67
2022/06/22 06:04:16;;;;;;;;;;;;;;;-144.47;43.54;53201.69;5051365;28;19921;-67
2022/06/22 06:06:41;;;;;;;;;;;;;;;-144.47;43.16;53173.88;5052099;28;19932;-67
2022/06/22 06:09:11;;;;;;;;;;;;;;;-144.47;43.29;53201.69;5052380;28;19924;-65
2022/06/22 06:11:40;;;;;;;;;;;;;;;-144.47;43.19;53185.81;5053288;28;19931;-68
2022/06/22 06:14:08;;;;;;;;;;;;;;;-144.47;43.10;53173.88;5048989;28;19932;-68
2022/06/22 06:16:54;;;;;;;;;;;;;;;-144.47;42.86;53195.75;5047140;28;19928;-67
2022/06/22 06:19:22;;;;;;;;;;;;;;;-144.47;43.01;53181.84;5051356;28;19951;-67
2022/06/22 06:21:50;;;;;;;;;;;;;;;-144.47;42.73;53171.91;5053896;28;19944;-67
2022/06/22 06:24:15;;;;;;;;;;;;;;;-144.47;42.68;53177.88;5052895;28;20003;-67
2022/06/22 06:29:40;;;;;;;;;;;;;;;-144.47;42.93;53177.88;5047493;28;19927;-68
2022/06/22 06:32:06;;;;;;;;;;;;;;;-144.47;42.39;53185.81;5052265;28;19917;-69
2022/06/22 06:34:37;;;;;;;;;;;;;;;-144.47;41.80;53169.91;5054177;28;19928;-69
2022/06/22 06:37:20;;;;;;;;;;;;;;;-144.47;41.78;53201.69;5048213;28;19991;-69
2022/06/22 06:39:48;;;;;;;;;;;;;;;-144.47;41.62;53189.78;5053769;28;20000;-67
2022/06/22 06:42:16;;;;;;;;;;;;;;;-144.47;41.68;53175.88;5051274;28;19917;-68
2022/06/22 06:44:43;;;;;;;;;;;;;;;-144.47;41.79;53167.94;5051609;28;20379;-67
2022/06/22 06:47:15;;;;;;;;;;;;;;;-144.47;41.85;53169.91;5057180;28;20313;-67
2022/06/22 06:49:55;;;;;;;;;;;;;;;-144.47;41.63;53138.13;5054165;28;20003;-67
2022/06/22 06:52:28;;;;;;;;;;;;;;;-144.47;41.65;53152.03;5058173;28;19974;-67
2022/06/22 06:55:14;;;;;;;;;;;;;;;-144.47;41.43;53169.91;5060828;28;19915;-68
2022/06/22 06:57:52;;;;;;;;;;;;;;;-144.47;41.53;53161.97;5057320;28;19996;-68
2022/06/22 07:00:17;;;;;;;;;;;;;;;-144.47;41.32;53185.81;5054780;28;19913;-69
2022/06/22 07:02:43;;;;;;;;;;;;;;;-144.47;41.17;53134.16;5056413;28;19923;-68
2022/06/22 07:05:17;;;;;;;;;;;;;;;-144.47;40.85;53171.91;5057368;28;20108;-69
2022/06/22 07:08:00;;;;;;;;;;;;;;;-144.47;40.28;53187.78;5060049;28;19919;-68
2022/06/22 07:10:39;;;;;;;;;;;;;;;-144.47;39.83;53148.06;5051528;28;20003;-68
2022/06/22 07:13:26;;;;;;;;;;;;;;;-144.47;40.12;53175.88;5059316;28;19916;-68
2022/06/22 07:15:54;;;;;;;;;;;;;;;-144.47;39.66;53193.75;5060236;28;19951;-67
2022/06/22 07:18:22;;;;;;;;;;;;;;;-144.47;39.98;53140.13;5057545;28;19916;-68
2022/06/22 07:20:50;;;;;;;;;;;;;;;-144.47;39.77;53130.19;5056398;28;19908;-67
2022/06/22 07:23:22;;;;;;;;;;;;;;;-144.47;40.61;53140.13;5053538;28;19920;-66
2022/06/22 07:26:00;;;;;;;;;;;;;;;-144.47;40.01;53169.91;5042996;28;19916;-66
2022/06/22 07:28:31;;;;;;;;;;;;;;;-144.47;39.89;53175.88;5058381;28;19919;-66
2022/06/22 07:31:02;;;;;;;;;;;;;;;-144.47;39.61;53161.97;5060482;28;19909;-69
2022/06/22 07:33:40;;;;;;;;;;;;;;;-144.47;38.57;53181.84;5057057;28;19988;-70
2022/06/22 07:36:10;;;;;;;;;;;;;;;-144.47;38.82;53142.09;5053524;28;20402;-68
2022/06/22 07:38:55;;;;;;;;;;;;;;;-144.47;38.97;53140.13;5052964;28;19942;-67
2022/06/22 07:41:25;;;;;;;;;;;;;;;-144.47;39.21;53128.22;5057166;28;20065;-67
2022/06/22 07:43:55;;;;;;;;;;;;;;;-144.47;39.35;53156.00;5054583;28;19908;-69
2022/06/22 07:46:23;;;;;;;;;;;;;;;-144.47;39.23;53142.09;5052141;28;19916;-67
2022/06/22 07:48:51;;;;;;;;;;;;;;;-144.47;38.86;53158.00;5054849;28;19912;-68
2022/06/22 07:51:19;;;;;;;;;;;;;;;-144.47;38.74;53156.00;5052181;28;19917;-68
2022/06/22 07:53:44;;;;;;;;;;;;;;;-144.47;39.04;53154.03;5054972;28;19939;-68
2022/06/22 07:56:10;;;;;;;;;;;;;;;-144.47;39.12;53106.34;5050592;28;21004;-67
2022/06/22 07:59:01;;;;;;;;;;;;;;;-144.47;38.83;53144.09;5052728;28;19952;-67
2022/06/22 08:01:30;;;;;;;;;;;;;;;-144.47;38.77;53146.09;5047730;28;19981;-68
2022/06/22 08:03:57;;;;;;;;;;;;;;;-144.47;39.29;53140.13;5051875;28;19916;-68
2022/06/22 08:06:28;;;;;;;;;;;;;;;-144.47;39.20;53144.09;5048500;28;19928;-68
2022/06/22 08:09:03;;;;;;;;;;;;;;;-144.47;38.91;53130.19;5058801;28;19912;-67
2022/06/22 08:11:31;;;;;;;;;;;;;;;-144.47;38.63;53124.22;5050174;28;19916;-69
2022/06/22 08:14:13;;;;;;;;;;;;;;;-144.47;38.54;53140.13;5048413;28;19919;-68
2022/06/22 08:16:43;;;;;;;;;;;;;;;-144.47;38.49;53098.41;5053588;28;19916;-71
2022/06/22 08:19:09;;;;;;;;;;;;;;;-144.47;38.09;53142.09;5050269;28;20586;-68
2022/06/22 08:21:40;;;;;;;;;;;;;;;-144.47;38.48;53144.09;5049518;28;19916;-66
2022/06/22 08:24:09;;;;;;;;;;;;;;;-144.47;38.29;53136.16;5048908;28;19928;-67
2022/06/22 08:26:34;;;;;;;;;;;;;;;-144.47;38.22;53108.34;5055329;28;19912;-67
2022/06/22 08:29:00;;;;;;;;;;;;;;;-144.47;38.32;53122.25;5048288;28;20007;-66
2022/06/22 08:31:36;;;;;;;;;;;;;;;-144.47;37.37;53082.53;5052732;28;19909;-65
2022/06/22 08:34:04;;;;;;;;;;;;;;;-144.47;36.57;53114.31;5047108;28;19947;-69
2022/06/22 08:36:42;;;;;;;;;;;;;;;-144.47;36.72;53114.31;5055501;28;19908;-67
2022/06/22 08:39:21;;;;;;;;;;;;;;;-144.47;35.99;53128.22;5052801;28;19923;-67
2022/06/22 08:41:49;;;;;;;;;;;;;;;-144.47;35.95;53124.22;5053907;28;19922;-67
2022/06/22 08:44:28;;;;;;;;;;;;;;;-144.47;36.02;53142.09;5056876;28;19963;-68
2022/06/22 08:46:56;;;;;;;;;;;;;;;-144.47;35.82;53104.38;5057029;28;19908;-67
2022/06/22 08:49:40;;;;;;;;;;;;;;;-144.47;36.02;53126.22;5056894;28;19920;-70
2022/06/22 08:52:25;;;;;;;;;;;;;;;-144.47;36.13;53090.47;5057622;28;20354;-66
2022/06/22 08:55:00;;;;;;;;;;;;;;;-144.47;35.96;53098.41;5052407;28;20004;-67
2022/06/22 08:57:29;;;;;;;;;;;;;;;-144.47;35.32;53114.31;5058130;28;19954;-66
2022/06/22 08:59:54;;;;;;;;;;;;;;;-144.47;35.25;53124.22;5051978;28;19912;-67
2022/06/22 09:02:34;;;;;;;;;;;;;;;-144.47;34.84;53110.31;5057839;28;19908;-68
2022/06/22 09:04:59;;;;;;;;;;;;;;;-144.47;35.07;53102.38;5055963;28;19928;-67
2022/06/22 09:07:49;;;;;;;;;;;;;;;-144.47;35.21;53108.34;5054802;28;20459;-69
2022/06/22 09:10:33;;;;;;;;;;;;;;;-144.47;35.39;53102.38;5058650;28;19920;-66
2022/06/22 09:13:17;;;;;;;;;;;;;;;-144.47;35.15;53094.44;5049498;28;19923;-70
2022/06/22 09:15:47;;;;;;;;;;;;;;;-144.47;35.05;53102.38;5052987;28;20487;-69
2022/06/22 09:18:19;;;;;;;;;;;;;;;-144.47;34.77;53116.28;5053790;28;20459;-66
2022/06/22 09:20:47;;;;;;;;;;;;;;;-144.47;34.19;53092.44;5052638;28;19924;-67
2022/06/22 09:23:18;;;;;;;;;;;;;;;-144.47;34.75;53086.50;5052961;28;19964;-68
2022/06/22 09:25:50;;;;;;;;;;;;;;;-144.47;34.99;53076.56;5053313;28;19968;-68
2022/06/22 09:28:26;;;;;;;;;;;;;;;-144.47;34.76;53106.34;5048850;28;19939;-66
2022/06/22 09:31:04;;;;;;;;;;;;;;;-144.47;34.27;53084.50;5053879;28;19933;-67
2022/06/22 09:33:46;;;;;;;;;;;;;;;-144.47;34.41;53102.38;5048931;28;20359;-68
2022/06/22 09:36:17;;;;;;;;;;;;;;;-144.47;34.10;53088.47;5057262;28;20004;-67
2022/06/22 09:39:01;;;;;;;;;;;;;;;-144.47;34.05;53090.47;5052434;28;20570;-68
2022/06/22 09:41:26;;;;;;;;;;;;;;;-144.47;34.16;53124.22;5047406;28;20011;-67
2022/06/22 09:44:10;;;;;;;;;;;;;;;-144.47;33.75;53106.34;5050573;28;20007;-67
2022/06/22 09:46:38;;;;;;;;;;;;;;;-144.47;34.27;53090.47;5052332;28;19922;-68
2022/06/22 09:49:09;;;;;;;;;;;;;;;-144.47;33.84;53090.47;5048935;28;19920;-67
2022/06/22 09:51:53;;;;;;;;;;;;;;;-144.47;33.39;53082.53;5048660;28;19990;-68
2022/06/22 09:57:18;;;;;;;;;;;;;;;-144.47;33.27;53082.53;5052680;28;20003;-67
2022/06/22 09:59:50;;;;;;;;;;;;;;;-144.47;33.13;53080.53;5064569;22;20064;-67
2022/06/22 10:02:24;;;;;;;;;;;;;;;-144.47;32.65;53082.53;5045752;28;20567;-69
2022/06/22 10:05:16;;;;;;;;;;;;;;;-144.47;32.66;53058.69;5045330;28;20024;-66
2022/06/22 10:07:47;;;;;;;;;;;;;;;-144.47;32.20;53056.69;5045092;28;19916;-67
2022/06/22 10:10:31;;;;;;;;;;;;;;;-144.47;32.65;53074.56;5043011;28;20448;-68
2022/06/22 10:12:59;;;;;;;;;;;;;;;-144.47;32.90;53086.50;5045291;28;19916;-68
2022/06/22 10:15:25;;;;;;;;;;;;;;;-144.47;32.48;53082.53;5041862;28;19913;-70
2022/06/22 10:17:57;;;;;;;;;;;;;;;-144.47;32.70;53060.66;5045808;28;20034;-66
2022/06/22 10:20:37;;;;;;;;;;;;;;;-144.47;32.52;53070.59;5042713;28;19908;-67
2022/06/22 10:23:06;;;;;;;;;;;;;;;-144.47;32.38;53082.53;5043527;28;20039;-66
2022/06/22 10:25:43;;;;;;;;;;;;;;;-144.47;31.96;53100.41;5043939;28;19913;-65
2022/06/22 10:28:09;;;;;;;;;;;;;;;-144.47;31.05;53052.72;5045472;28;19924;-70
2022/06/22 10:30:38;;;;;;;;;;;;;;;-144.47;31.10;53092.44;5041732;28;19919;-67
2022/06/22 10:33:10;;;;;;;;;;;;;;;-144.47;31.41;53066.63;5045339;28;19913;-66
2022/06/22 10:35:57;;;;;;;;;;;;;;;-144.47;30.51;53056.69;5043770;28;19927;-66
2022/06/22 10:38:38;;;;;;;;;;;;;;;-144.47;31.05;53068.63;5045721;28;19927;-69
2022/06/22 10:46:59;;;;;;;;;;;;;;;-144.47;30.87;53064.66;5042712;28;19935;-67
2022/06/22 10:49:40;;;;;;;;;;;;;;;-144.47;30.64;53062.66;5041563;28;19917;-68
2022/06/22 10:52:23;;;;;;;;;;;;;;;-144.47;30.84;53048.75;5042316;28;19923;-68
2022/06/22 10:54:49;;;;;;;;;;;;;;;-144.47;31.01;53070.59;5043035;28;20027;-67
2022/06/22 10:57:33;;;;;;;;;;;;;;;-144.47;30.63;53066.63;5044120;28;19943;-68
2022/06/22 11:00:17;;;;;;;;;;;;;;;-144.47;30.56;53062.66;5041138;28;19990;-68
2022/06/22 11:03:01;;;;;;;;;;;;;;;-144.47;30.52;53015.00;5043865;28;19927;-68
2022/06/22 11:05:26;;;;;;;;;;;;;;;-144.47;30.27;53058.69;5043660;28;19908;-69
2022/06/22 11:07:54;;;;;;;;;;;;;;;-144.47;30.27;53046.75;5044882;28;19913;-68
2022/06/22 11:10:19;;;;;;;;;;;;;;;-144.47;29.91;53026.91;5041511;28;19933;-67
2022/06/22 11:13:00;;;;;;;;;;;;;;;-144.47;29.97;53046.75;5043590;28;19931;-68
2022/06/22 11:15:28;;;;;;;;;;;;;;;-144.47;29.96;53028.88;5041383;28;19916;-69
2022/06/22 11:17:59;;;;;;;;;;;;;;;-144.47;29.65;53052.72;5043004;28;19909;-71
2022/06/22 11:20:43;;;;;;;;;;;;;;;-144.47;29.50;53034.84;5041271;28;19916;-69
2022/06/22 11:23:15;;;;;;;;;;;;;;;-144.47;29.15;53056.69;5043780;28;19917;-69
2022/06/22 11:31:46;;;;;;;;;;;;;;;-144.47;29.10;52997.09;5039953;28;20011;-70
2022/06/22 11:34:13;;;;;;;;;;;;;;;-144.47;29.03;53052.72;5043108;28;19955;-69
2022/06/22 11:37:08;;;;;;;;;;;;;;;-144.47;28.97;53052.72;5042098;28;20803;-69
2022/06/22 11:39:33;;;;;;;;;;;;;;;-144.47;28.58;53042.78;5036483;28;20056;-68
2022/06/22 11:42:25;;;;;;;;;;;;;;;-144.47;28.82;53013.00;5042359;28;20569;-68
2022/06/22 11:45:50;;;;;;;;;;;;;;;-144.47;28.75;53040.81;5026520;28;20210;-69
2022/06/22 11:47:38;;;;;;;;;;;;;;;-144.47;28.47;53020.94;5041653;28;19920;-69
2022/06/22 11:50:24;;;;;;;;;;;;;;;-144.47;28.59;53034.84;5040826;28;19909;-69
2022/06/22 11:53:08;;;;;;;;;;;;;;;-144.47;28.17;53022.94;5044469;28;20441;-66
2022/06/22 11:55:37;;;;;;;;;;;;;;;-144.47;28.28;53034.84;5040176;28;19927;-67
2022/06/22 11:58:02;;;;;;;;;;;;;;;-144.47;27.81;53022.94;5044249;28;19909;-68
2022/06/22 12:00:46;;;;;;;;;;;;;;;-144.47;28.05;53018.97;5040687;28;19962;-71
2022/06/22 12:03:20;;;;;;;;;;;;;;;-144.47;28.44;53015.00;5043199;28;19943;-69
2022/06/22 12:05:48;;;;;;;;;;;;;;;-144.47;28.16;53034.84;5041906;28;19917;-69
2022/06/22 12:08:39;;;;;;;;;;;;;;;-144.47;28.20;53032.88;5042844;28;19923;-66
2022/06/22 12:11:30;;;;;;;;;;;;;;;-144.47;28.01;53013.00;5040280;28;20412;-67
2022/06/22 12:17:02;;;;;;;;;;;;;;;-144.47;28.12;53044.78;5040992;28;19975;-66
2022/06/22 12:19:27;;;;;;;;;;;;;;;-144.47;28.03;53022.94;5042597;28;19908;-68
2022/06/22 12:21:55;;;;;;;;;;;;;;;-144.47;28.14;52999.09;5041512;28;19909;-69
2022/06/22 12:24:32;;;;;;;;;;;;;;;-144.47;27.82;52999.09;5042078;28;19916;-67
2022/06/22 12:27:11;;;;;;;;;;;;;;;-144.47;27.51;53048.75;5040836;28;19915;-67
2022/06/22 12:29:36;;;;;;;;;;;;;;;-144.47;27.36;53058.69;5041537;28;19916;-67
2022/06/22 12:32:19;;;;;;;;;;;;;;;-144.47;27.31;53011.00;5041898;28;19921;-66
2022/06/22 12:35:00;;;;;;;;;;;;;;;-144.47;27.23;53038.81;5043432;28;19913;-67
2022/06/22 12:37:28;;;;;;;;;;;;;;;-144.47;26.93;52987.19;5042844;28;19975;-67
2022/06/22 12:40:09;;;;;;;;;;;;;;;-144.47;27.06;52989.16;5041765;28;20000;-67
2022/06/22 12:42:34;;;;;;;;;;;;;;;-144.47;26.74;52989.16;5043448;28;19916;-67
2022/06/22 12:44:59;;;;;;;;;;;;;;;-144.47;26.53;52991.16;5040394;28;19908;-66
2022/06/22 12:47:30;;;;;;;;;;;;;;;-144.47;26.36;52995.13;5043414;28;19919;-70
2022/06/22 12:50:13;;;;;;;;;;;;;;;-144.47;26.02;53022.94;5039681;28;19919;-68
2022/06/22 12:52:41;;;;;;;;;;;;;;;-144.47;25.49;52975.25;5042846;28;20003;-65
2022/06/22 12:55:17;;;;;;;;;;;;;;;-144.47;24.83;52927.59;5041900;28;20003;-69
2022/06/22 12:57:49;;;;;;;;;;;;;;;-144.47;24.76;52947.47;5040610;28;19916;-67
2022/06/22 13:00:16;;;;;;;;;;;;;;;-144.47;24.59;52975.25;5038805;28;19921;-68
2022/06/22 13:02:42;;;;;;;;;;;;;;;-144.47;24.50;52967.31;5041393;28;20018;-68
2022/06/22 13:05:13;;;;;;;;;;;;;;;-144.47;24.27;52931.56;5040821;28;19909;-67
2022/06/22 13:07:43;;;;;;;;;;;;;;;-144.47;24.20;52931.56;5041775;28;19957;-69
2022/06/22 13:10:12;;;;;;;;;;;;;;;-144.47;24.40;52931.56;5040179;28;19917;-67
2022/06/22 13:12:52;;;;;;;;;;;;;;;-144.47;24.46;52953.41;5041062;28;19920;-68
2022/06/22 13:15:33;;;;;;;;;;;;;;;-144.47;24.43;52927.59;5039403;28;20409;-66
2022/06/22 13:18:05;;;;;;;;;;;;;;;-144.47;24.13;52917.66;5037871;28;20007;-68